sensor_id;sensor_type;location;lat;lon;timestamp;P1;durP1;ratioP1;P2;durP2;ratioP2
7817;SDS011;3954;52.624;9.212;2023-02-26T00:00:59;4.28;;;2.13;;
7817;SDS011;3954;52.624;9.212;2023-02-26T00:03:25;3.20;;;1.90;;
7817;SDS011;3954;52.624;9.212;2023-02-26T00:05:51;4.07;;;2.10;;
7817;SDS011;3954;52.624;9.212;2023-02-26T00:08:17;2.88;;;2.08;;
7817;SDS011;3954;52.624;9.212;2023-02-26T00:10:43;2.92;;;1.80;;
7817;SDS011;3954;52.624;9.212;2023-02-26T00:13:10;3.40;;;1.90;;
7817;SDS011;3954;52.624;9.212;2023-02-26T00:15:38;3.22;;;1.92;;
7817;SDS011;3954;52.624;9.212;2023-02-26T00:18:05;3.10;;;1.85;;
7817;SDS011;3954;52.624;9.212;2023-02-26T00:20:31;3.45;;;1.83;;
7817;SDS011;3954;52.624;9.212;2023-02-26T00:22:58;3.42;;;2.10;;
7817;SDS011;3954;52.624;9.212;2023-02-26T00:25:24;4.00;;;1.90;;
7817;SDS011;3954;52.624;9.212;2023-02-26T00:27:50;3.22;;;1.77;;
7817;SDS011;3954;52.624;9.212;2023-02-26T00:30:17;4.13;;;2.20;;
7817;SDS011;3954;52.624;9.212;2023-02-26T00:32:44;4.03;;;1.93;;
7817;SDS011;3954;52.624;9.212;2023-02-26T00:35:11;3.05;;;1.90;;
7817;SDS011;3954;52.624;9.212;2023-02-26T00:40:28;4.60;;;1.80;;
7817;SDS011;3954;52.624;9.212;2023-02-26T00:42:55;4.03;;;2.10;;
7817;SDS011;3954;52.624;9.212;2023-02-26T00:45:21;3.75;;;2.03;;
7817;SDS011;3954;52.624;9.212;2023-02-26T00:47:49;3.58;;;1.92;;
7817;SDS011;3954;52.624;9.212;2023-02-26T00:50:18;4.13;;;2.05;;
7817;SDS011;3954;52.624;9.212;2023-02-26T00:52:47;3.00;;;2.08;;
7817;SDS011;3954;52.624;9.212;2023-02-26T00:55:14;3.90;;;1.85;;
7817;SDS011;3954;52.624;9.212;2023-02-26T00:57:40;3.53;;;1.92;;
7817;SDS011;3954;52.624;9.212;2023-02-26T01:00:06;3.70;;;2.20;;
7817;SDS011;3954;52.624;9.212;2023-02-26T01:02:33;3.15;;;2.10;;
7817;SDS011;3954;52.624;9.212;2023-02-26T01:05:01;6.13;;;2.10;;
7817;SDS011;3954;52.624;9.212;2023-02-26T01:07:27;3.05;;;2.00;;
7817;SDS011;3954;52.624;9.212;2023-02-26T01:09:54;2.88;;;1.80;;
7817;SDS011;3954;52.624;9.212;2023-02-26T01:12:20;2.75;;;1.70;;
7817;SDS011;3954;52.624;9.212;2023-02-26T01:14:47;3.75;;;1.90;;
7817;SDS011;3954;52.624;9.212;2023-02-26T01:17:16;3.35;;;1.70;;
7817;SDS011;3954;52.624;9.212;2023-02-26T01:19:44;2.75;;;1.67;;
7817;SDS011;3954;52.624;9.212;2023-02-26T01:22:16;3.22;;;1.80;;
7817;SDS011;3954;52.624;9.212;2023-02-26T01:24:44;2.85;;;1.85;;
7817;SDS011;3954;52.624;9.212;2023-02-26T01:27:11;3.25;;;1.80;;
7817;SDS011;3954;52.624;9.212;2023-02-26T01:29:37;3.95;;;2.00;;
7817;SDS011;3954;52.624;9.212;2023-02-26T01:32:05;3.58;;;1.92;;
7817;SDS011;3954;52.624;9.212;2023-02-26T01:34:33;3.30;;;1.80;;
7817;SDS011;3954;52.624;9.212;2023-02-26T01:37:01;4.30;;;1.90;;
7817;SDS011;3954;52.624;9.212;2023-02-26T01:39:34;3.30;;;2.13;;
7817;SDS011;3954;52.624;9.212;2023-02-26T01:42:04;5.05;;;2.10;;
7817;SDS011;3954;52.624;9.212;2023-02-26T01:44:33;3.13;;;1.70;;
7817;SDS011;3954;52.624;9.212;2023-02-26T01:47:03;4.32;;;2.20;;
7817;SDS011;3954;52.624;9.212;2023-02-26T01:49:30;4.97;;;2.17;;
7817;SDS011;3954;52.624;9.212;2023-02-26T01:51:56;4.35;;;2.00;;
7817;SDS011;3954;52.624;9.212;2023-02-26T01:54:23;6.32;;;2.10;;
7817;SDS011;3954;52.624;9.212;2023-02-26T01:56:52;3.47;;;1.80;;
7817;SDS011;3954;52.624;9.212;2023-02-26T01:59:20;3.40;;;1.80;;
7817;SDS011;3954;52.624;9.212;2023-02-26T02:01:48;4.23;;;2.10;;
7817;SDS011;3954;52.624;9.212;2023-02-26T02:04:15;4.72;;;1.60;;
7817;SDS011;3954;52.624;9.212;2023-02-26T02:06:41;3.27;;;1.80;;
7817;SDS011;3954;52.624;9.212;2023-02-26T02:09:08;4.47;;;1.90;;
7817;SDS011;3954;52.624;9.212;2023-02-26T02:11:34;3.50;;;2.08;;
7817;SDS011;3954;52.624;9.212;2023-02-26T02:14:08;3.10;;;1.77;;
7817;SDS011;3954;52.624;9.212;2023-02-26T02:16:39;2.45;;;1.60;;
7817;SDS011;3954;52.624;9.212;2023-02-26T02:19:23;2.53;;;1.67;;
7817;SDS011;3954;52.624;9.212;2023-02-26T02:22:00;2.92;;;1.80;;
7817;SDS011;3954;52.624;9.212;2023-02-26T02:24:34;4.15;;;1.95;;
7817;SDS011;3954;52.624;9.212;2023-02-26T02:27:07;2.65;;;1.83;;
7817;SDS011;3954;52.624;9.212;2023-02-26T02:29:56;4.85;;;2.03;;
7817;SDS011;3954;52.624;9.212;2023-02-26T02:32:28;4.20;;;2.28;;
7817;SDS011;3954;52.624;9.212;2023-02-26T02:34:57;3.85;;;2.00;;
7817;SDS011;3954;52.624;9.212;2023-02-26T02:37:26;4.18;;;2.35;;
7817;SDS011;3954;52.624;9.212;2023-02-26T02:39:55;3.30;;;1.95;;
7817;SDS011;3954;52.624;9.212;2023-02-26T02:42:24;4.82;;;2.15;;
7817;SDS011;3954;52.624;9.212;2023-02-26T02:44:52;4.28;;;2.13;;
7817;SDS011;3954;52.624;9.212;2023-02-26T02:47:19;4.18;;;2.17;;
7817;SDS011;3954;52.624;9.212;2023-02-26T02:49:47;3.90;;;2.00;;
7817;SDS011;3954;52.624;9.212;2023-02-26T02:52:15;5.30;;;2.40;;
7817;SDS011;3954;52.624;9.212;2023-02-26T02:54:43;2.65;;;1.92;;
7817;SDS011;3954;52.624;9.212;2023-02-26T02:57:13;4.18;;;2.05;;
7817;SDS011;3954;52.624;9.212;2023-02-26T02:59:41;3.88;;;1.92;;
7817;SDS011;3954;52.624;9.212;2023-02-26T03:02:09;5.32;;;2.35;;
7817;SDS011;3954;52.624;9.212;2023-02-26T03:04:36;3.25;;;2.00;;
7817;SDS011;3954;52.624;9.212;2023-02-26T03:07:04;3.13;;;2.22;;
7817;SDS011;3954;52.624;9.212;2023-02-26T03:09:29;4.30;;;2.20;;
7817;SDS011;3954;52.624;9.212;2023-02-26T03:11:56;4.50;;;2.03;;
7817;SDS011;3954;52.624;9.212;2023-02-26T03:14:24;4.85;;;2.15;;
7817;SDS011;3954;52.624;9.212;2023-02-26T03:16:56;4.18;;;2.20;;
7817;SDS011;3954;52.624;9.212;2023-02-26T03:19:27;5.03;;;2.05;;
7817;SDS011;3954;52.624;9.212;2023-02-26T03:21:55;2.97;;;1.83;;
7817;SDS011;3954;52.624;9.212;2023-02-26T03:24:26;3.17;;;1.90;;
7817;SDS011;3954;52.624;9.212;2023-02-26T03:26:53;3.00;;;2.00;;
7817;SDS011;3954;52.624;9.212;2023-02-26T03:29:24;3.53;;;2.03;;
7817;SDS011;3954;52.624;9.212;2023-02-26T03:31:53;3.40;;;2.00;;
7817;SDS011;3954;52.624;9.212;2023-02-26T03:34:21;5.00;;;2.33;;
7817;SDS011;3954;52.624;9.212;2023-02-26T03:36:50;3.95;;;2.13;;
7817;SDS011;3954;52.624;9.212;2023-02-26T03:39:19;3.97;;;2.05;;
7817;SDS011;3954;52.624;9.212;2023-02-26T03:41:48;3.60;;;1.98;;
7817;SDS011;3954;52.624;9.212;2023-02-26T03:44:17;4.00;;;2.00;;
7817;SDS011;3954;52.624;9.212;2023-02-26T03:46:45;3.55;;;2.10;;
7817;SDS011;3954;52.624;9.212;2023-02-26T03:49:16;2.70;;;1.90;;
7817;SDS011;3954;52.624;9.212;2023-02-26T03:51:43;4.60;;;2.00;;
7817;SDS011;3954;52.624;9.212;2023-02-26T03:54:12;2.85;;;1.85;;
7817;SDS011;3954;52.624;9.212;2023-02-26T03:56:40;3.50;;;1.90;;
7817;SDS011;3954;52.624;9.212;2023-02-26T03:59:08;3.33;;;1.90;;
7817;SDS011;3954;52.624;9.212;2023-02-26T04:01:36;4.13;;;2.13;;
7817;SDS011;3954;52.624;9.212;2023-02-26T04:04:06;3.60;;;2.10;;
7817;SDS011;3954;52.624;9.212;2023-02-26T04:06:33;4.68;;;2.28;;
7817;SDS011;3954;52.624;9.212;2023-02-26T04:08:59;3.23;;;1.93;;
7817;SDS011;3954;52.624;9.212;2023-02-26T04:11:26;3.72;;;2.10;;
7817;SDS011;3954;52.624;9.212;2023-02-26T04:13:52;4.30;;;2.10;;
7817;SDS011;3954;52.624;9.212;2023-02-26T04:16:19;3.35;;;1.90;;
7817;SDS011;3954;52.624;9.212;2023-02-26T04:18:46;5.07;;;2.10;;
7817;SDS011;3954;52.624;9.212;2023-02-26T04:21:12;2.45;;;1.80;;
7817;SDS011;3954;52.624;9.212;2023-02-26T04:23:40;4.28;;;2.17;;
7817;SDS011;3954;52.624;9.212;2023-02-26T04:26:06;4.65;;;2.05;;
7817;SDS011;3954;52.624;9.212;2023-02-26T04:28:32;5.28;;;2.10;;
7817;SDS011;3954;52.624;9.212;2023-02-26T04:31:01;3.85;;;2.00;;
7817;SDS011;3954;52.624;9.212;2023-02-26T04:33:28;3.40;;;1.83;;
7817;SDS011;3954;52.624;9.212;2023-02-26T04:35:55;4.35;;;2.20;;
7817;SDS011;3954;52.624;9.212;2023-02-26T04:38:21;3.83;;;2.00;;
7817;SDS011;3954;52.624;9.212;2023-02-26T04:40:47;3.45;;;2.00;;
7817;SDS011;3954;52.624;9.212;2023-02-26T04:43:14;3.28;;;1.88;;
7817;SDS011;3954;52.624;9.212;2023-02-26T04:45:40;3.65;;;2.10;;
7817;SDS011;3954;52.624;9.212;2023-02-26T04:48:06;3.43;;;1.73;;
7817;SDS011;3954;52.624;9.212;2023-02-26T04:50:33;3.47;;;1.92;;
7817;SDS011;3954;52.624;9.212;2023-02-26T04:52:59;3.50;;;2.03;;
7817;SDS011;3954;52.624;9.212;2023-02-26T04:55:25;4.03;;;1.80;;
7817;SDS011;3954;52.624;9.212;2023-02-26T04:57:51;3.97;;;2.00;;
7817;SDS011;3954;52.624;9.212;2023-02-26T05:00:18;3.45;;;1.92;;
7817;SDS011;3954;52.624;9.212;2023-02-26T05:02:44;5.60;;;2.10;;
7817;SDS011;3954;52.624;9.212;2023-02-26T05:05:10;4.30;;;2.08;;
7817;SDS011;3954;52.624;9.212;2023-02-26T05:07:37;4.57;;;2.00;;
7817;SDS011;3954;52.624;9.212;2023-02-26T05:10:03;3.15;;;1.80;;
7817;SDS011;3954;52.624;9.212;2023-02-26T05:12:30;3.33;;;1.90;;
7817;SDS011;3954;52.624;9.212;2023-02-26T05:14:56;4.45;;;1.95;;
7817;SDS011;3954;52.624;9.212;2023-02-26T05:17:22;3.47;;;1.98;;
7817;SDS011;3954;52.624;9.212;2023-02-26T05:19:48;4.10;;;2.00;;
7817;SDS011;3954;52.624;9.212;2023-02-26T05:22:14;4.15;;;1.70;;
7817;SDS011;3954;52.624;9.212;2023-02-26T05:24:41;2.88;;;1.80;;
7817;SDS011;3954;52.624;9.212;2023-02-26T05:27:07;2.80;;;1.77;;
7817;SDS011;3954;52.624;9.212;2023-02-26T05:29:33;4.50;;;1.90;;
7817;SDS011;3954;52.624;9.212;2023-02-26T05:31:59;3.60;;;2.03;;
7817;SDS011;3954;52.624;9.212;2023-02-26T05:34:26;3.80;;;1.95;;
7817;SDS011;3954;52.624;9.212;2023-02-26T05:36:52;4.53;;;2.10;;
7817;SDS011;3954;52.624;9.212;2023-02-26T05:39:18;3.80;;;2.10;;
7817;SDS011;3954;52.624;9.212;2023-02-26T05:41:45;5.30;;;1.92;;
7817;SDS011;3954;52.624;9.212;2023-02-26T05:44:12;6.07;;;2.40;;
7817;SDS011;3954;52.624;9.212;2023-02-26T05:46:38;3.05;;;2.08;;
7817;SDS011;3954;52.624;9.212;2023-02-26T05:49:04;3.75;;;2.30;;
7817;SDS011;3954;52.624;9.212;2023-02-26T05:51:30;3.90;;;1.98;;
7817;SDS011;3954;52.624;9.212;2023-02-26T05:53:56;4.10;;;2.08;;
7817;SDS011;3954;52.624;9.212;2023-02-26T05:56:22;3.55;;;2.03;;
7817;SDS011;3954;52.624;9.212;2023-02-26T05:58:49;5.57;;;2.20;;
7817;SDS011;3954;52.624;9.212;2023-02-26T06:01:15;3.58;;;1.98;;
7817;SDS011;3954;52.624;9.212;2023-02-26T06:03:41;4.35;;;2.25;;
7817;SDS011;3954;52.624;9.212;2023-02-26T06:06:08;3.63;;;2.00;;
7817;SDS011;3954;52.624;9.212;2023-02-26T06:08:34;4.13;;;2.15;;
7817;SDS011;3954;52.624;9.212;2023-02-26T06:11:00;5.00;;;2.15;;
7817;SDS011;3954;52.624;9.212;2023-02-26T06:13:26;4.78;;;2.20;;
7817;SDS011;3954;52.624;9.212;2023-02-26T06:15:53;4.13;;;2.00;;
7817;SDS011;3954;52.624;9.212;2023-02-26T06:18:19;4.28;;;2.40;;
7817;SDS011;3954;52.624;9.212;2023-02-26T06:20:45;5.13;;;2.35;;
7817;SDS011;3954;52.624;9.212;2023-02-26T06:23:11;5.13;;;2.13;;
7817;SDS011;3954;52.624;9.212;2023-02-26T06:25:39;3.73;;;2.13;;
7817;SDS011;3954;52.624;9.212;2023-02-26T06:28:05;4.32;;;2.30;;
7817;SDS011;3954;52.624;9.212;2023-02-26T06:30:31;4.80;;;2.30;;
7817;SDS011;3954;52.624;9.212;2023-02-26T06:32:58;3.47;;;2.05;;
7817;SDS011;3954;52.624;9.212;2023-02-26T06:35:24;3.85;;;1.95;;
7817;SDS011;3954;52.624;9.212;2023-02-26T06:37:52;3.60;;;2.22;;
7817;SDS011;3954;52.624;9.212;2023-02-26T06:40:18;4.30;;;2.30;;
7817;SDS011;3954;52.624;9.212;2023-02-26T06:42:44;3.87;;;2.20;;
7817;SDS011;3954;52.624;9.212;2023-02-26T06:45:10;3.45;;;2.08;;
7817;SDS011;3954;52.624;9.212;2023-02-26T06:47:36;3.20;;;1.98;;
7817;SDS011;3954;52.624;9.212;2023-02-26T06:50:04;4.20;;;2.05;;
7817;SDS011;3954;52.624;9.212;2023-02-26T06:52:30;3.85;;;1.90;;
7817;SDS011;3954;52.624;9.212;2023-02-26T06:54:56;4.85;;;2.00;;
7817;SDS011;3954;52.624;9.212;2023-02-26T06:57:22;3.80;;;1.90;;
7817;SDS011;3954;52.624;9.212;2023-02-26T06:59:48;4.18;;;2.20;;
7817;SDS011;3954;52.624;9.212;2023-02-26T07:02:16;5.72;;;2.13;;
7817;SDS011;3954;52.624;9.212;2023-02-26T07:04:42;3.80;;;1.90;;
7817;SDS011;3954;52.624;9.212;2023-02-26T07:07:10;4.70;;;2.20;;
7817;SDS011;3954;52.624;9.212;2023-02-26T07:09:36;4.22;;;1.92;;
7817;SDS011;3954;52.624;9.212;2023-02-26T07:12:02;3.45;;;1.80;;
7817;SDS011;3954;52.624;9.212;2023-02-26T07:14:28;3.83;;;1.90;;
7817;SDS011;3954;52.624;9.212;2023-02-26T07:16:54;4.53;;;2.30;;
7817;SDS011;3954;52.624;9.212;2023-02-26T07:19:20;4.30;;;2.10;;
7817;SDS011;3954;52.624;9.212;2023-02-26T07:21:46;8.43;;;2.90;;
7817;SDS011;3954;52.624;9.212;2023-02-26T07:24:14;4.95;;;2.40;;
7817;SDS011;3954;52.624;9.212;2023-02-26T07:26:40;4.88;;;2.28;;
7817;SDS011;3954;52.624;9.212;2023-02-26T07:29:06;4.18;;;2.30;;
7817;SDS011;3954;52.624;9.212;2023-02-26T07:31:32;4.40;;;2.30;;
7817;SDS011;3954;52.624;9.212;2023-02-26T07:33:58;3.83;;;2.33;;
7817;SDS011;3954;52.624;9.212;2023-02-26T07:36:24;5.05;;;2.40;;
7817;SDS011;3954;52.624;9.212;2023-02-26T07:38:50;3.47;;;1.98;;
7817;SDS011;3954;52.624;9.212;2023-02-26T07:41:17;2.85;;;1.98;;
7817;SDS011;3954;52.624;9.212;2023-02-26T07:43:43;4.40;;;1.93;;
7817;SDS011;3954;52.624;9.212;2023-02-26T07:46:10;3.60;;;2.08;;
7817;SDS011;3954;52.624;9.212;2023-02-26T07:48:36;4.63;;;2.28;;
7817;SDS011;3954;52.624;9.212;2023-02-26T07:51:02;3.75;;;2.10;;
7817;SDS011;3954;52.624;9.212;2023-02-26T07:53:29;4.65;;;2.00;;
7817;SDS011;3954;52.624;9.212;2023-02-26T07:55:55;4.20;;;1.88;;
7817;SDS011;3954;52.624;9.212;2023-02-26T07:58:22;3.05;;;1.90;;
7817;SDS011;3954;52.624;9.212;2023-02-26T08:00:48;4.35;;;2.10;;
7817;SDS011;3954;52.624;9.212;2023-02-26T08:03:16;5.97;;;2.38;;
7817;SDS011;3954;52.624;9.212;2023-02-26T08:05:42;3.83;;;2.00;;
7817;SDS011;3954;52.624;9.212;2023-02-26T08:08:08;4.85;;;2.30;;
7817;SDS011;3954;52.624;9.212;2023-02-26T08:10:34;3.30;;;1.98;;
7817;SDS011;3954;52.624;9.212;2023-02-26T08:13:00;4.80;;;2.03;;
7817;SDS011;3954;52.624;9.212;2023-02-26T08:15:28;3.88;;;1.88;;
7817;SDS011;3954;52.624;9.212;2023-02-26T08:17:53;3.47;;;1.92;;
7817;SDS011;3954;52.624;9.212;2023-02-26T08:20:20;4.18;;;1.90;;
7817;SDS011;3954;52.624;9.212;2023-02-26T08:22:47;3.22;;;1.80;;
7817;SDS011;3954;52.624;9.212;2023-02-26T08:25:13;5.25;;;1.98;;
7817;SDS011;3954;52.624;9.212;2023-02-26T08:27:39;4.07;;;2.10;;
7817;SDS011;3954;52.624;9.212;2023-02-26T08:30:05;3.97;;;1.80;;
7817;SDS011;3954;52.624;9.212;2023-02-26T08:32:33;3.05;;;1.67;;
7817;SDS011;3954;52.624;9.212;2023-02-26T08:34:59;2.90;;;1.80;;
7817;SDS011;3954;52.624;9.212;2023-02-26T08:37:25;3.88;;;1.77;;
7817;SDS011;3954;52.624;9.212;2023-02-26T08:39:51;3.85;;;2.20;;
7817;SDS011;3954;52.624;9.212;2023-02-26T08:42:17;3.37;;;1.80;;
7817;SDS011;3954;52.624;9.212;2023-02-26T08:44:44;4.60;;;1.80;;
7817;SDS011;3954;52.624;9.212;2023-02-26T08:47:10;3.33;;;1.77;;
7817;SDS011;3954;52.624;9.212;2023-02-26T08:49:38;2.47;;;1.70;;
7817;SDS011;3954;52.624;9.212;2023-02-26T08:52:04;2.70;;;1.43;;
7817;SDS011;3954;52.624;9.212;2023-02-26T08:54:30;2.37;;;1.40;;
7817;SDS011;3954;52.624;9.212;2023-02-26T08:56:56;3.25;;;1.55;;
7817;SDS011;3954;52.624;9.212;2023-02-26T08:59:22;2.53;;;1.70;;
7817;SDS011;3954;52.624;9.212;2023-02-26T09:01:48;2.28;;;1.48;;
7817;SDS011;3954;52.624;9.212;2023-02-26T09:04:14;4.15;;;1.77;;
7817;SDS011;3954;52.624;9.212;2023-02-26T09:06:41;4.25;;;1.67;;
7817;SDS011;3954;52.624;9.212;2023-02-26T09:09:08;3.05;;;1.40;;
7817;SDS011;3954;52.624;9.212;2023-02-26T09:11:34;1.63;;;1.42;;
7817;SDS011;3954;52.624;9.212;2023-02-26T09:14:01;2.47;;;1.40;;
7817;SDS011;3954;52.624;9.212;2023-02-26T09:16:27;3.70;;;1.30;;
7817;SDS011;3954;52.624;9.212;2023-02-26T09:18:54;2.63;;;1.50;;
7817;SDS011;3954;52.624;9.212;2023-02-26T09:21:20;2.47;;;1.50;;
7817;SDS011;3954;52.624;9.212;2023-02-26T09:23:47;1.98;;;1.30;;
7817;SDS011;3954;52.624;9.212;2023-02-26T09:26:13;2.47;;;1.50;;
7817;SDS011;3954;52.624;9.212;2023-02-26T09:28:39;2.78;;;1.27;;
7817;SDS011;3954;52.624;9.212;2023-02-26T09:31:05;1.83;;;1.08;;
7817;SDS011;3954;52.624;9.212;2023-02-26T09:33:32;2.72;;;1.58;;
7817;SDS011;3954;52.624;9.212;2023-02-26T09:35:58;2.10;;;1.40;;
7817;SDS011;3954;52.624;9.212;2023-02-26T09:38:24;1.53;;;1.30;;
7817;SDS011;3954;52.624;9.212;2023-02-26T09:40:52;2.45;;;1.50;;
7817;SDS011;3954;52.624;9.212;2023-02-26T09:43:32;2.63;;;1.37;;
7817;SDS011;3954;52.624;9.212;2023-02-26T09:46:00;1.38;;;1.08;;
7817;SDS011;3954;52.624;9.212;2023-02-26T09:48:28;2.88;;;1.48;;
7817;SDS011;3954;52.624;9.212;2023-02-26T09:50:55;3.00;;;1.30;;
7817;SDS011;3954;52.624;9.212;2023-02-26T09:53:23;3.17;;;1.23;;
7817;SDS011;3954;52.624;9.212;2023-02-26T09:55:49;1.93;;;1.30;;
7817;SDS011;3954;52.624;9.212;2023-02-26T09:58:23;1.90;;;1.30;;
7817;SDS011;3954;52.624;9.212;2023-02-26T10:00:53;2.80;;;1.40;;
7817;SDS011;3954;52.624;9.212;2023-02-26T10:03:24;3.10;;;1.38;;
7817;SDS011;3954;52.624;9.212;2023-02-26T10:06:05;2.27;;;1.20;;
7817;SDS011;3954;52.624;9.212;2023-02-26T10:08:36;2.30;;;1.20;;
7817;SDS011;3954;52.624;9.212;2023-02-26T10:11:04;2.25;;;1.30;;
7817;SDS011;3954;52.624;9.212;2023-02-26T10:13:35;2.00;;;1.30;;
7817;SDS011;3954;52.624;9.212;2023-02-26T10:16:04;1.98;;;1.20;;
7817;SDS011;3954;52.624;9.212;2023-02-26T10:18:33;2.97;;;1.35;;
7817;SDS011;3954;52.624;9.212;2023-02-26T10:21:00;2.50;;;1.20;;
7817;SDS011;3954;52.624;9.212;2023-02-26T10:23:30;3.07;;;1.40;;
7817;SDS011;3954;52.624;9.212;2023-02-26T10:25:57;2.05;;;1.25;;
7817;SDS011;3954;52.624;9.212;2023-02-26T10:28:32;2.47;;;1.40;;
7817;SDS011;3954;52.624;9.212;2023-02-26T10:31:01;2.25;;;1.30;;
7817;SDS011;3954;52.624;9.212;2023-02-26T10:33:32;2.50;;;1.40;;
7817;SDS011;3954;52.624;9.212;2023-02-26T10:36:03;2.97;;;1.20;;
7817;SDS011;3954;52.624;9.212;2023-02-26T10:38:30;2.53;;;1.50;;
7817;SDS011;3954;52.624;9.212;2023-02-26T10:40:57;2.97;;;1.52;;
7817;SDS011;3954;52.624;9.212;2023-02-26T10:43:26;2.45;;;1.42;;
7817;SDS011;3954;52.624;9.212;2023-02-26T10:45:57;3.13;;;1.55;;
7817;SDS011;3954;52.624;9.212;2023-02-26T10:48:29;3.10;;;1.95;;
7817;SDS011;3954;52.624;9.212;2023-02-26T10:50:59;3.20;;;2.20;;
7817;SDS011;3954;52.624;9.212;2023-02-26T10:53:26;5.35;;;3.22;;
7817;SDS011;3954;52.624;9.212;2023-02-26T10:55:54;3.90;;;2.53;;
7817;SDS011;3954;52.624;9.212;2023-02-26T10:58:22;2.67;;;1.80;;
7817;SDS011;3954;52.624;9.212;2023-02-26T11:00:49;2.73;;;1.50;;
7817;SDS011;3954;52.624;9.212;2023-02-26T11:03:18;2.55;;;1.70;;
7817;SDS011;3954;52.624;9.212;2023-02-26T11:05:46;4.13;;;2.22;;
7817;SDS011;3954;52.624;9.212;2023-02-26T11:08:14;2.33;;;1.38;;
7817;SDS011;3954;52.624;9.212;2023-02-26T11:10:41;3.35;;;1.20;;
7817;SDS011;3954;52.624;9.212;2023-02-26T11:13:09;2.22;;;1.40;;
7817;SDS011;3954;52.624;9.212;2023-02-26T11:15:36;2.67;;;1.50;;
7817;SDS011;3954;52.624;9.212;2023-02-26T11:18:03;2.03;;;1.40;;
7817;SDS011;3954;52.624;9.212;2023-02-26T11:20:30;2.17;;;1.23;;
7817;SDS011;3954;52.624;9.212;2023-02-26T11:22:59;2.42;;;1.50;;
7817;SDS011;3954;52.624;9.212;2023-02-26T11:25:27;3.38;;;1.80;;
7817;SDS011;3954;52.624;9.212;2023-02-26T11:27:56;2.28;;;1.50;;
7817;SDS011;3954;52.624;9.212;2023-02-26T11:30:26;2.92;;;1.80;;
7817;SDS011;3954;52.624;9.212;2023-02-26T11:32:55;2.17;;;1.48;;
7817;SDS011;3954;52.624;9.212;2023-02-26T11:35:22;3.33;;;1.80;;
7817;SDS011;3954;52.624;9.212;2023-02-26T11:37:51;2.05;;;1.42;;
7817;SDS011;3954;52.624;9.212;2023-02-26T11:40:22;3.25;;;2.03;;
7817;SDS011;3954;52.624;9.212;2023-02-26T11:42:50;3.10;;;2.30;;
7817;SDS011;3954;52.624;9.212;2023-02-26T11:45:18;3.35;;;1.52;;
7817;SDS011;3954;52.624;9.212;2023-02-26T11:47:44;5.93;;;3.75;;
7817;SDS011;3954;52.624;9.212;2023-02-26T11:50:12;4.80;;;2.90;;
7817;SDS011;3954;52.624;9.212;2023-02-26T11:52:39;2.50;;;1.52;;
7817;SDS011;3954;52.624;9.212;2023-02-26T11:55:16;2.90;;;1.80;;
7817;SDS011;3954;52.624;9.212;2023-02-26T11:57:43;3.55;;;2.45;;
7817;SDS011;3954;52.624;9.212;2023-02-26T12:00:15;2.72;;;1.70;;
7817;SDS011;3954;52.624;9.212;2023-02-26T12:02:43;1.63;;;1.30;;
7817;SDS011;3954;52.624;9.212;2023-02-26T12:05:09;2.40;;;1.60;;
7817;SDS011;3954;52.624;9.212;2023-02-26T12:07:37;3.08;;;1.90;;
7817;SDS011;3954;52.624;9.212;2023-02-26T12:10:05;1.83;;;1.50;;
7817;SDS011;3954;52.624;9.212;2023-02-26T12:12:37;2.60;;;1.40;;
7817;SDS011;3954;52.624;9.212;2023-02-26T12:15:13;2.40;;;1.35;;
7817;SDS011;3954;52.624;9.212;2023-02-26T12:17:46;1.83;;;1.47;;
7817;SDS011;3954;52.624;9.212;2023-02-26T12:20:16;1.90;;;1.30;;
7817;SDS011;3954;52.624;9.212;2023-02-26T12:22:48;1.70;;;1.30;;
7817;SDS011;3954;52.624;9.212;2023-02-26T12:25:25;1.45;;;1.20;;
7817;SDS011;3954;52.624;9.212;2023-02-26T12:27:59;1.98;;;1.38;;
7817;SDS011;3954;52.624;9.212;2023-02-26T12:30:33;1.90;;;1.30;;
7817;SDS011;3954;52.624;9.212;2023-02-26T12:33:06;2.15;;;1.42;;
7817;SDS011;3954;52.624;9.212;2023-02-26T12:35:42;2.43;;;1.43;;
7817;SDS011;3954;52.624;9.212;2023-02-26T12:38:14;1.83;;;1.25;;
7817;SDS011;3954;52.624;9.212;2023-02-26T12:40:57;2.45;;;1.40;;
7817;SDS011;3954;52.624;9.212;2023-02-26T12:43:28;1.13;;;1.03;;
7817;SDS011;3954;52.624;9.212;2023-02-26T12:46:00;3.38;;;1.15;;
7817;SDS011;3954;52.624;9.212;2023-02-26T12:48:32;1.98;;;1.50;;
7817;SDS011;3954;52.624;9.212;2023-02-26T12:51:01;1.75;;;1.10;;
7817;SDS011;3954;52.624;9.212;2023-02-26T12:53:35;1.58;;;1.20;;
7817;SDS011;3954;52.624;9.212;2023-02-26T12:56:09;1.60;;;1.40;;
7817;SDS011;3954;52.624;9.212;2023-02-26T12:58:41;1.50;;;1.33;;
7817;SDS011;3954;52.624;9.212;2023-02-26T13:01:17;2.10;;;1.50;;
7817;SDS011;3954;52.624;9.212;2023-02-26T13:03:53;2.03;;;1.60;;
7817;SDS011;3954;52.624;9.212;2023-02-26T13:06:39;2.17;;;1.33;;
7817;SDS011;3954;52.624;9.212;2023-02-26T13:09:11;1.73;;;1.30;;
7817;SDS011;3954;52.624;9.212;2023-02-26T13:11:42;1.40;;;1.20;;
7817;SDS011;3954;52.624;9.212;2023-02-26T13:14:16;1.50;;;1.10;;
7817;SDS011;3954;52.624;9.212;2023-02-26T13:16:46;1.50;;;1.20;;
7817;SDS011;3954;52.624;9.212;2023-02-26T13:19:18;1.85;;;1.13;;
7817;SDS011;3954;52.624;9.212;2023-02-26T13:21:47;1.83;;;1.33;;
7817;SDS011;3954;52.624;9.212;2023-02-26T13:24:17;2.00;;;1.20;;
7817;SDS011;3954;52.624;9.212;2023-02-26T13:26:44;2.35;;;1.30;;
7817;SDS011;3954;52.624;9.212;2023-02-26T13:29:11;1.60;;;1.23;;
7817;SDS011;3954;52.624;9.212;2023-02-26T13:31:40;1.87;;;1.20;;
7817;SDS011;3954;52.624;9.212;2023-02-26T13:34:10;1.83;;;1.30;;
7817;SDS011;3954;52.624;9.212;2023-02-26T13:36:38;2.00;;;1.20;;
7817;SDS011;3954;52.624;9.212;2023-02-26T13:39:12;1.55;;;1.10;;
7817;SDS011;3954;52.624;9.212;2023-02-26T13:41:46;1.85;;;1.10;;
7817;SDS011;3954;52.624;9.212;2023-02-26T13:44:17;1.58;;;1.15;;
7817;SDS011;3954;52.624;9.212;2023-02-26T13:46:50;3.00;;;1.70;;
7817;SDS011;3954;52.624;9.212;2023-02-26T13:49:20;2.58;;;1.30;;
7817;SDS011;3954;52.624;9.212;2023-02-26T13:51:48;1.67;;;1.23;;
7817;SDS011;3954;52.624;9.212;2023-02-26T13:54:28;2.10;;;1.30;;
7817;SDS011;3954;52.624;9.212;2023-02-26T13:56:58;1.88;;;1.30;;
7817;SDS011;3954;52.624;9.212;2023-02-26T13:59:35;1.45;;;1.30;;
7817;SDS011;3954;52.624;9.212;2023-02-26T14:02:14;1.73;;;1.23;;
7817;SDS011;3954;52.624;9.212;2023-02-26T14:04:50;1.48;;;1.30;;
7817;SDS011;3954;52.624;9.212;2023-02-26T14:07:17;2.28;;;1.33;;
7817;SDS011;3954;52.624;9.212;2023-02-26T14:10:13;1.50;;;1.17;;
7817;SDS011;3954;52.624;9.212;2023-02-26T14:12:41;2.20;;;1.20;;
7817;SDS011;3954;52.624;9.212;2023-02-26T14:18:01;5.13;;;3.28;;
7817;SDS011;3954;52.624;9.212;2023-02-26T14:20:28;2.00;;;1.70;;
7817;SDS011;3954;52.624;9.212;2023-02-26T14:23:11;2.63;;;2.05;;
7817;SDS011;3954;52.624;9.212;2023-02-26T14:25:39;2.50;;;1.90;;
7817;SDS011;3954;52.624;9.212;2023-02-26T14:28:17;1.50;;;1.33;;
7817;SDS011;3954;52.624;9.212;2023-02-26T14:30:46;2.85;;;1.73;;
7817;SDS011;3954;52.624;9.212;2023-02-26T14:33:13;1.37;;;1.27;;
7817;SDS011;3954;52.624;9.212;2023-02-26T14:35:42;1.50;;;1.40;;
7817;SDS011;3954;52.624;9.212;2023-02-26T14:38:10;1.98;;;1.40;;
7817;SDS011;3954;52.624;9.212;2023-02-26T14:40:39;1.83;;;1.30;;
7817;SDS011;3954;52.624;9.212;2023-02-26T14:43:08;2.67;;;1.70;;
7817;SDS011;3954;52.624;9.212;2023-02-26T14:45:39;2.42;;;1.60;;
7817;SDS011;3954;52.624;9.212;2023-02-26T14:48:10;2.80;;;1.83;;
7817;SDS011;3954;52.624;9.212;2023-02-26T14:50:39;2.38;;;1.60;;
7817;SDS011;3954;52.624;9.212;2023-02-26T14:53:31;3.70;;;2.17;;
7817;SDS011;3954;52.624;9.212;2023-02-26T14:56:05;2.10;;;1.50;;
7817;SDS011;3954;52.624;9.212;2023-02-26T14:58:40;2.30;;;1.90;;
7817;SDS011;3954;52.624;9.212;2023-02-26T15:01:12;3.33;;;2.60;;
7817;SDS011;3954;52.624;9.212;2023-02-26T15:03:45;2.50;;;1.85;;
7817;SDS011;3954;52.624;9.212;2023-02-26T15:06:31;2.35;;;1.63;;
7817;SDS011;3954;52.624;9.212;2023-02-26T15:09:05;3.38;;;2.20;;
7817;SDS011;3954;52.624;9.212;2023-02-26T15:11:46;3.78;;;2.50;;
7817;SDS011;3954;52.624;9.212;2023-02-26T15:17:07;2.50;;;2.00;;
7817;SDS011;3954;52.624;9.212;2023-02-26T15:19:38;2.67;;;1.80;;
7817;SDS011;3954;52.624;9.212;2023-02-26T15:22:10;4.57;;;2.10;;
7817;SDS011;3954;52.624;9.212;2023-02-26T15:24:38;2.00;;;1.60;;
7817;SDS011;3954;52.624;9.212;2023-02-26T15:27:06;2.47;;;1.42;;
7817;SDS011;3954;52.624;9.212;2023-02-26T15:29:34;3.47;;;1.58;;
7817;SDS011;3954;52.624;9.212;2023-02-26T15:32:04;2.00;;;1.50;;